sensor_id;sensor_type;location;lat;lon;timestamp;temperature;humidity
59025;DHT22;44806;48.008;13.666;2022-08-19T00:00:21;21.80;99.90
59025;DHT22;44806;48.008;13.666;2022-08-19T00:02:49;21.80;99.90
59025;DHT22;44806;48.008;13.666;2022-08-19T00:05:17;21.80;99.90
59025;DHT22;44806;48.008;13.666;2022-08-19T00:07:45;21.90;99.90
59025;DHT22;44806;48.008;13.666;2022-08-19T00:10:14;21.90;99.90
59025;DHT22;44806;48.008;13.666;2022-08-19T00:12:42;22.00;99.90
59025;DHT22;44806;48.008;13.666;2022-08-19T00:15:14;22.00;99.90
59025;DHT22;44806;48.008;13.666;2022-08-19T00:17:42;22.00;99.90
59025;DHT22;44806;48.008;13.666;2022-08-19T00:20:12;22.00;99.90
59025;DHT22;44806;48.008;13.666;2022-08-19T00:22:42;22.10;99.90
59025;DHT22;44806;48.008;13.666;2022-08-19T00:25:10;22.10;99.50
59025;DHT22;44806;48.008;13.666;2022-08-19T00:27:38;22.00;99.90
59025;DHT22;44806;48.008;13.666;2022-08-19T00:30:07;21.90;99.90
59025;DHT22;44806;48.008;13.666;2022-08-19T00:32:37;21.70;99.90
59025;DHT22;44806;48.008;13.666;2022-08-19T00:35:05;21.80;99.90
59025;DHT22;44806;48.008;13.666;2022-08-19T00:37:33;21.80;99.90
59025;DHT22;44806;48.008;13.666;2022-08-19T00:40:01;21.80;99.90
59025;DHT22;44806;48.008;13.666;2022-08-19T00:42:29;21.80;99.90
59025;DHT22;44806;48.008;13.666;2022-08-19T00:44:56;21.80;99.90
59025;DHT22;44806;48.008;13.666;2022-08-19T00:47:23;21.80;99.90
59025;DHT22;44806;48.008;13.666;2022-08-19T00:49:56;21.80;99.90
59025;DHT22;44806;48.008;13.666;2022-08-19T00:52:26;21.80;99.90
59025;DHT22;44806;48.008;13.666;2022-08-19T00:54:57;21.60;99.90
59025;DHT22;44806;48.008;13.666;2022-08-19T00:57:28;21.60;99.90
59025;DHT22;44806;48.008;13.666;2022-08-19T00:59:58;21.50;99.90
59025;DHT22;44806;48.008;13.666;2022-08-19T01:02:26;21.40;99.90
59025;DHT22;44806;48.008;13.666;2022-08-19T01:04:56;21.30;99.90
59025;DHT22;44806;48.008;13.666;2022-08-19T01:07:23;21.30;99.90
59025;DHT22;44806;48.008;13.666;2022-08-19T01:09:51;21.40;99.90
59025;DHT22;44806;48.008;13.666;2022-08-19T01:12:18;21.40;99.90
59025;DHT22;44806;48.008;13.666;2022-08-19T01:14:45;21.40;99.90
59025;DHT22;44806;48.008;13.666;2022-08-19T01:17:14;21.40;99.90
59025;DHT22;44806;48.008;13.666;2022-08-19T01:19:44;21.40;99.90
59025;DHT22;44806;48.008;13.666;2022-08-19T01:22:18;21.40;99.90
59025;DHT22;44806;48.008;13.666;2022-08-19T01:24:48;21.30;99.90
59025;DHT22;44806;48.008;13.666;2022-08-19T01:27:15;21.30;99.90
59025;DHT22;44806;48.008;13.666;2022-08-19T01:29:43;21.40;99.90
59025;DHT22;44806;48.008;13.666;2022-08-19T01:32:13;21.30;99.90
59025;DHT22;44806;48.008;13.666;2022-08-19T01:34:43;21.30;99.90
59025;DHT22;44806;48.008;13.666;2022-08-19T01:37:14;21.40;99.90
59025;DHT22;44806;48.008;13.666;2022-08-19T01:39:42;21.40;99.90
59025;DHT22;44806;48.008;13.666;2022-08-19T01:42:11;21.40;99.90
59025;DHT22;44806;48.008;13.666;2022-08-19T01:44:38;21.50;99.90
59025;DHT22;44806;48.008;13.666;2022-08-19T01:47:07;21.40;99.90
59025;DHT22;44806;48.008;13.666;2022-08-19T01:49:35;21.30;99.90
59025;DHT22;44806;48.008;13.666;2022-08-19T01:52:03;21.30;99.90
59025;DHT22;44806;48.008;13.666;2022-08-19T01:54:31;21.20;99.90
59025;DHT22;44806;48.008;13.666;2022-08-19T01:57:04;21.20;99.90
59025;DHT22;44806;48.008;13.666;2022-08-19T01:59:33;21.20;99.90
59025;DHT22;44806;48.008;13.666;2022-08-19T02:02:03;21.20;99.90
59025;DHT22;44806;48.008;13.666;2022-08-19T02:04:34;21.10;99.90
59025;DHT22;44806;48.008;13.666;2022-08-19T02:07:01;21.00;99.90
59025;DHT22;44806;48.008;13.666;2022-08-19T02:09:28;20.90;99.90
59025;DHT22;44806;48.008;13.666;2022-08-19T02:11:57;20.90;99.90
59025;DHT22;44806;48.008;13.666;2022-08-19T02:14:26;21.00;99.90
59025;DHT22;44806;48.008;13.666;2022-08-19T02:16:55;21.00;99.90
59025;DHT22;44806;48.008;13.666;2022-08-19T02:19:22;21.00;99.90
59025;DHT22;44806;48.008;13.666;2022-08-19T02:21:49;21.00;99.90
59025;DHT22;44806;48.008;13.666;2022-08-19T02:24:16;21.00;99.90
59025;DHT22;44806;48.008;13.666;2022-08-19T02:26:43;20.90;99.90
59025;DHT22;44806;48.008;13.666;2022-08-19T02:29:11;21.00;99.90
59025;DHT22;44806;48.008;13.666;2022-08-19T02:31:38;21.00;99.90
59025;DHT22;44806;48.008;13.666;2022-08-19T02:34:07;21.00;99.90
59025;DHT22;44806;48.008;13.666;2022-08-19T02:36:34;21.00;99.90
59025;DHT22;44806;48.008;13.666;2022-08-19T02:39:01;20.90;99.90
59025;DHT22;44806;48.008;13.666;2022-08-19T02:41:29;20.90;99.90
59025;DHT22;44806;48.008;13.666;2022-08-19T02:43:58;20.90;99.90
59025;DHT22;44806;48.008;13.666;2022-08-19T02:46:28;20.80;99.90
59025;DHT22;44806;48.008;13.666;2022-08-19T02:48:57;20.80;99.90
59025;DHT22;44806;48.008;13.666;2022-08-19T02:51:27;20.70;99.90
59025;DHT22;44806;48.008;13.666;2022-08-19T02:53:55;20.80;99.90
59025;DHT22;44806;48.008;13.666;2022-08-19T02:56:22;20.80;99.90
59025;DHT22;44806;48.008;13.666;2022-08-19T02:58:50;20.70;99.90
59025;DHT22;44806;48.008;13.666;2022-08-19T03:01:23;20.80;99.90
59025;DHT22;44806;48.008;13.666;2022-08-19T03:03:53;20.80;99.90
59025;DHT22;44806;48.008;13.666;2022-08-19T03:06:21;20.80;99.90
59025;DHT22;44806;48.008;13.666;2022-08-19T03:08:50;20.90;99.90
59025;DHT22;44806;48.008;13.666;2022-08-19T03:11:19;20.90;99.90
59025;DHT22;44806;48.008;13.666;2022-08-19T03:13:47;20.80;99.90
59025;DHT22;44806;48.008;13.666;2022-08-19T03:16:20;20.80;99.90
59025;DHT22;44806;48.008;13.666;2022-08-19T03:18:48;20.90;99.90
59025;DHT22;44806;48.008;13.666;2022-08-19T03:21:16;21.00;99.90
59025;DHT22;44806;48.008;13.666;2022-08-19T03:23:43;21.00;99.90
59025;DHT22;44806;48.008;13.666;2022-08-19T03:26:12;21.00;99.90
59025;DHT22;44806;48.008;13.666;2022-08-19T03:28:40;21.10;99.90
59025;DHT22;44806;48.008;13.666;2022-08-19T03:31:10;21.00;99.90
59025;DHT22;44806;48.008;13.666;2022-08-19T03:33:38;21.00;99.90
59025;DHT22;44806;48.008;13.666;2022-08-19T03:36:08;21.00;99.90
59025;DHT22;44806;48.008;13.666;2022-08-19T03:38:41;21.00;99.90
59025;DHT22;44806;48.008;13.666;2022-08-19T03:41:13;20.90;99.90
59025;DHT22;44806;48.008;13.666;2022-08-19T03:43:41;20.90;99.90
59025;DHT22;44806;48.008;13.666;2022-08-19T03:46:11;20.80;99.90
59025;DHT22;44806;48.008;13.666;2022-08-19T03:48:39;20.90;99.90
59025;DHT22;44806;48.008;13.666;2022-08-19T03:51:07;20.80;99.90
59025;DHT22;44806;48.008;13.666;2022-08-19T03:53:35;20.70;99.90
59025;DHT22;44806;48.008;13.666;2022-08-19T03:56:02;20.70;99.90
59025;DHT22;44806;48.008;13.666;2022-08-19T03:58:31;20.70;99.90
59025;DHT22;44806;48.008;13.666;2022-08-19T04:00:58;20.70;99.90
59025;DHT22;44806;48.008;13.666;2022-08-19T04:03:26;20.70;99.90
59025;DHT22;44806;48.008;13.666;2022-08-19T04:05:53;20.60;99.90
59025;DHT22;44806;48.008;13.666;2022-08-19T04:08:20;20.70;99.90
59025;DHT22;44806;48.008;13.666;2022-08-19T04:10:48;20.60;99.90
59025;DHT22;44806;48.008;13.666;2022-08-19T04:13:16;20.50;99.90
59025;DHT22;44806;48.008;13.666;2022-08-19T04:15:45;20.60;99.90
59025;DHT22;44806;48.008;13.666;2022-08-19T04:18:13;20.80;99.90
59025;DHT22;44806;48.008;13.666;2022-08-19T04:20:45;20.80;99.90
59025;DHT22;44806;48.008;13.666;2022-08-19T04:23:14;20.80;99.90
59025;DHT22;44806;48.008;13.666;2022-08-19T04:25:43;20.80;99.90
59025;DHT22;44806;48.008;13.666;2022-08-19T04:28:12;20.80;99.90
59025;DHT22;44806;48.008;13.666;2022-08-19T04:30:41;20.80;99.90
59025;DHT22;44806;48.008;13.666;2022-08-19T04:33:15;20.80;99.90
59025;DHT22;44806;48.008;13.666;2022-08-19T04:35:46;20.60;99.90
59025;DHT22;44806;48.008;13.666;2022-08-19T04:38:14;20.80;99.90
59025;DHT22;44806;48.008;13.666;2022-08-19T04:40:43;20.70;99.90
59025;DHT22;44806;48.008;13.666;2022-08-19T04:43:28;20.70;99.90
59025;DHT22;44806;48.008;13.666;2022-08-19T04:45:56;20.60;99.90
59025;DHT22;44806;48.008;13.666;2022-08-19T04:48:24;20.60;99.90
59025;DHT22;44806;48.008;13.666;2022-08-19T04:50:52;20.60;99.90
59025;DHT22;44806;48.008;13.666;2022-08-19T04:53:23;20.60;99.90
59025;DHT22;44806;48.008;13.666;2022-08-19T04:55:55;20.60;99.90
59025;DHT22;44806;48.008;13.666;2022-08-19T04:58:22;20.60;99.90
59025;DHT22;44806;48.008;13.666;2022-08-19T05:00:50;20.60;99.90
59025;DHT22;44806;48.008;13.666;2022-08-19T05:03:18;20.60;99.90
59025;DHT22;44806;48.008;13.666;2022-08-19T05:05:48;20.50;99.90
59025;DHT22;44806;48.008;13.666;2022-08-19T05:08:18;20.60;99.90
59025;DHT22;44806;48.008;13.666;2022-08-19T05:10:47;20.60;99.90
59025;DHT22;44806;48.008;13.666;2022-08-19T05:13:16;20.50;99.90
59025;DHT22;44806;48.008;13.666;2022-08-19T05:15:44;20.50;99.90
59025;DHT22;44806;48.008;13.666;2022-08-19T05:18:11;20.50;99.90
59025;DHT22;44806;48.008;13.666;2022-08-19T05:20:57;20.50;99.90
59025;DHT22;44806;48.008;13.666;2022-08-19T05:23:42;20.50;99.90
59025;DHT22;44806;48.008;13.666;2022-08-19T05:26:10;20.50;99.90
59025;DHT22;44806;48.008;13.666;2022-08-19T05:28:37;20.50;99.90
59025;DHT22;44806;48.008;13.666;2022-08-19T05:31:05;20.50;99.90
59025;DHT22;44806;48.008;13.666;2022-08-19T05:33:32;20.70;99.90
59025;DHT22;44806;48.008;13.666;2022-08-19T05:36:01;20.70;99.90
59025;DHT22;44806;48.008;13.666;2022-08-19T05:38:28;20.80;99.90
59025;DHT22;44806;48.008;13.666;2022-08-19T05:40:55;20.90;99.90
59025;DHT22;44806;48.008;13.666;2022-08-19T05:43:22;21.00;99.90
59025;DHT22;44806;48.008;13.666;2022-08-19T05:45:51;21.00;99.90
59025;DHT22;44806;48.008;13.666;2022-08-19T05:48:18;21.00;99.90
59025;DHT22;44806;48.008;13.666;2022-08-19T05:50:46;21.10;99.90
59025;DHT22;44806;48.008;13.666;2022-08-19T05:53:17;21.20;99.90
59025;DHT22;44806;48.008;13.666;2022-08-19T05:55:44;21.20;99.90
59025;DHT22;44806;48.008;13.666;2022-08-19T05:58:11;21.20;99.90
59025;DHT22;44806;48.008;13.666;2022-08-19T06:00:39;21.20;99.90
59025;DHT22;44806;48.008;13.666;2022-08-19T06:03:06;21.30;99.90
59025;DHT22;44806;48.008;13.666;2022-08-19T06:05:33;21.30;99.90
59025;DHT22;44806;48.008;13.666;2022-08-19T06:08:03;21.20;99.90
59025;DHT22;44806;48.008;13.666;2022-08-19T06:10:34;21.20;99.90
59025;DHT22;44806;48.008;13.666;2022-08-19T06:13:02;21.20;99.90
59025;DHT22;44806;48.008;13.666;2022-08-19T06:15:30;21.30;99.90
59025;DHT22;44806;48.008;13.666;2022-08-19T06:17:57;21.40;99.90
59025;DHT22;44806;48.008;13.666;2022-08-19T06:20:24;21.40;99.90
59025;DHT22;44806;48.008;13.666;2022-08-19T06:22:51;21.20;99.90
59025;DHT22;44806;48.008;13.666;2022-08-19T06:25:19;21.10;99.90
59025;DHT22;44806;48.008;13.666;2022-08-19T06:27:47;21.00;99.90
59025;DHT22;44806;48.008;13.666;2022-08-19T06:30:15;20.90;99.90
59025;DHT22;44806;48.008;13.666;2022-08-19T06:32:42;20.90;99.90
59025;DHT22;44806;48.008;13.666;2022-08-19T06:35:11;20.90;99.90
59025;DHT22;44806;48.008;13.666;2022-08-19T06:37:40;20.90;99.90
59025;DHT22;44806;48.008;13.666;2022-08-19T06:40:09;21.00;99.90
59025;DHT22;44806;48.008;13.666;2022-08-19T06:42:38;21.00;99.90
59025;DHT22;44806;48.008;13.666;2022-08-19T06:45:07;21.10;99.90
59025;DHT22;44806;48.008;13.666;2022-08-19T06:47:38;20.90;99.90
59025;DHT22;44806;48.008;13.666;2022-08-19T06:50:06;20.80;99.90
59025;DHT22;44806;48.008;13.666;2022-08-19T06:52:34;21.00;99.90
59025;DHT22;44806;48.008;13.666;2022-08-19T06:55:02;21.10;99.90
59025;DHT22;44806;48.008;13.666;2022-08-19T06:57:31;21.20;99.90
59025;DHT22;44806;48.008;13.666;2022-08-19T06:59:59;21.30;99.90
59025;DHT22;44806;48.008;13.666;2022-08-19T07:02:28;21.30;99.90
59025;DHT22;44806;48.008;13.666;2022-08-19T07:04:55;21.40;99.90
59025;DHT22;44806;48.008;13.666;2022-08-19T07:07:23;21.40;99.90
59025;DHT22;44806;48.008;13.666;2022-08-19T07:09:51;21.40;99.90
59025;DHT22;44806;48.008;13.666;2022-08-19T07:12:19;21.40;99.90
59025;DHT22;44806;48.008;13.666;2022-08-19T07:14:46;21.40;99.90
59025;DHT22;44806;48.008;13.666;2022-08-19T07:17:15;21.40;99.90
59025;DHT22;44806;48.008;13.666;2022-08-19T07:19:43;21.40;99.90
59025;DHT22;44806;48.008;13.666;2022-08-19T07:22:10;21.40;99.90
59025;DHT22;44806;48.008;13.666;2022-08-19T07:24:38;21.50;99.90
59025;DHT22;44806;48.008;13.666;2022-08-19T07:27:06;21.60;99.90
59025;DHT22;44806;48.008;13.666;2022-08-19T07:29:36;21.70;99.90
59025;DHT22;44806;48.008;13.666;2022-08-19T07:32:04;21.60;99.90
59025;DHT22;44806;48.008;13.666;2022-08-19T07:34:32;21.60;99.90
59025;DHT22;44806;48.008;13.666;2022-08-19T07:37:04;21.50;99.90
59025;DHT22;44806;48.008;13.666;2022-08-19T07:39:33;21.60;99.90
59025;DHT22;44806;48.008;13.666;2022-08-19T07:42:04;21.60;99.90
59025;DHT22;44806;48.008;13.666;2022-08-19T07:44:33;21.60;99.90
59025;DHT22;44806;48.008;13.666;2022-08-19T07:47:01;21.60;99.90
59025;DHT22;44806;48.008;13.666;2022-08-19T07:49:35;21.70;99.90
59025;DHT22;44806;48.008;13.666;2022-08-19T07:52:06;21.80;99.90
59025;DHT22;44806;48.008;13.666;2022-08-19T07:54:36;21.80;99.90
59025;DHT22;44806;48.008;13.666;2022-08-19T07:57:04;21.90;99.90
59025;DHT22;44806;48.008;13.666;2022-08-19T07:59:31;22.00;99.90
59025;DHT22;44806;48.008;13.666;2022-08-19T08:02:00;22.10;99.90
59025;DHT22;44806;48.008;13.666;2022-08-19T08:04:29;22.10;99.90
59025;DHT22;44806;48.008;13.666;2022-08-19T08:07:15;22.20;99.90
59025;DHT22;44806;48.008;13.666;2022-08-19T08:10:00;22.20;99.90
59025;DHT22;44806;48.008;13.666;2022-08-19T08:12:29;22.20;99.90
59025;DHT22;44806;48.008;13.666;2022-08-19T08:14:59;22.20;99.90
59025;DHT22;44806;48.008;13.666;2022-08-19T08:17:30;22.30;99.90
59025;DHT22;44806;48.008;13.666;2022-08-19T08:19:57;22.40;99.90
59025;DHT22;44806;48.008;13.666;2022-08-19T08:22:29;22.60;99.90
59025;DHT22;44806;48.008;13.666;2022-08-19T08:25:17;22.70;99.90
59025;DHT22;44806;48.008;13.666;2022-08-19T08:27:45;22.80;99.90
59025;DHT22;44806;48.008;13.666;2022-08-19T08:30:15;23.00;99.90
59025;DHT22;44806;48.008;13.666;2022-08-19T08:32:43;23.00;99.90
59025;DHT22;44806;48.008;13.666;2022-08-19T08:35:12;23.00;99.90
59025;DHT22;44806;48.008;13.666;2022-08-19T08:37:42;23.00;99.90
59025;DHT22;44806;48.008;13.666;2022-08-19T08:40:18;23.10;99.90
59025;DHT22;44806;48.008;13.666;2022-08-19T08:42:50;23.10;99.90
59025;DHT22;44806;48.008;13.666;2022-08-19T08:45:18;23.20;99.90
59025;DHT22;44806;48.008;13.666;2022-08-19T08:47:49;23.30;99.90
59025;DHT22;44806;48.008;13.666;2022-08-19T08:50:20;23.40;99.90
59025;DHT22;44806;48.008;13.666;2022-08-19T08:52:53;23.60;99.90
59025;DHT22;44806;48.008;13.666;2022-08-19T08:55:25;23.70;99.90
59025;DHT22;44806;48.008;13.666;2022-08-19T08:57:59;23.50;99.90
59025;DHT22;44806;48.008;13.666;2022-08-19T09:00:29;23.40;99.90
59025;DHT22;44806;48.008;13.666;2022-08-19T09:02:58;23.30;99.90
59025;DHT22;44806;48.008;13.666;2022-08-19T09:05:33;23.60;99.90
59025;DHT22;44806;48.008;13.666;2022-08-19T09:08:08;23.50;99.90
59025;DHT22;44806;48.008;13.666;2022-08-19T09:10:39;23.70;99.90
59025;DHT22;44806;48.008;13.666;2022-08-19T09:13:16;24.10;99.90
59025;DHT22;44806;48.008;13.666;2022-08-19T09:15:49;24.00;99.90
59025;DHT22;44806;48.008;13.666;2022-08-19T09:18:19;23.80;99.90
59025;DHT22;44806;48.008;13.666;2022-08-19T09:20:47;24.10;99.90
59025;DHT22;44806;48.008;13.666;2022-08-19T09:23:15;24.10;99.90
59025;DHT22;44806;48.008;13.666;2022-08-19T09:25:43;24.30;99.90
59025;DHT22;44806;48.008;13.666;2022-08-19T09:28:10;24.40;99.90
59025;DHT22;44806;48.008;13.666;2022-08-19T09:30:40;24.40;99.90
59025;DHT22;44806;48.008;13.666;2022-08-19T09:33:08;24.20;99.90
59025;DHT22;44806;48.008;13.666;2022-08-19T09:35:35;24.00;99.90
59025;DHT22;44806;48.008;13.666;2022-08-19T09:38:03;24.20;99.90
59025;DHT22;44806;48.008;13.666;2022-08-19T09:40:31;23.80;99.90
59025;DHT22;44806;48.008;13.666;2022-08-19T09:42:59;23.90;99.90
59025;DHT22;44806;48.008;13.666;2022-08-19T09:45:28;23.90;99.90
59025;DHT22;44806;48.008;13.666;2022-08-19T09:47:56;23.90;99.90
59025;DHT22;44806;48.008;13.666;2022-08-19T09:50:24;23.80;99.90
59025;DHT22;44806;48.008;13.666;2022-08-19T09:52:51;24.00;99.90
59025;DHT22;44806;48.008;13.666;2022-08-19T09:55:22;24.10;99.90
59025;DHT22;44806;48.008;13.666;2022-08-19T09:57:53;24.30;99.90
59025;DHT22;44806;48.008;13.666;2022-08-19T10:00:21;24.30;99.10
59025;DHT22;44806;48.008;13.666;2022-08-19T10:02:48;24.30;99.10
59025;DHT22;44806;48.008;13.666;2022-08-19T10:05:15;24.40;99.90
59025;DHT22;44806;48.008;13.666;2022-08-19T10:08:00;24.60;99.30
59025;DHT22;44806;48.008;13.666;2022-08-19T10:10:27;24.60;99.30
59025;DHT22;44806;48.008;13.666;2022-08-19T10:12:58;24.70;99.90
59025;DHT22;44806;48.008;13.666;2022-08-19T10:15:26;24.90;97.70
59025;DHT22;44806;48.008;13.666;2022-08-19T10:17:53;24.90;97.30
59025;DHT22;44806;48.008;13.666;2022-08-19T10:20:20;25.00;96.30
59025;DHT22;44806;48.008;13.666;2022-08-19T10:22:48;25.20;96.70
59025;DHT22;44806;48.008;13.666;2022-08-19T10:25:15;25.00;95.70
59025;DHT22;44806;48.008;13.666;2022-08-19T10:27:43;24.60;96.10
59025;DHT22;44806;48.008;13.666;2022-08-19T10:30:13;24.50;96.90
59025;DHT22;44806;48.008;13.666;2022-08-19T10:32:40;24.70;97.50
59025;DHT22;44806;48.008;13.666;2022-08-19T10:35:07;24.90;97.20
59025;DHT22;44806;48.008;13.666;2022-08-19T10:37:35;25.00;96.40
59025;DHT22;44806;48.008;13.666;2022-08-19T10:40:05;25.20;96.30
59025;DHT22;44806;48.008;13.666;2022-08-19T10:42:34;25.40;95.80
59025;DHT22;44806;48.008;13.666;2022-08-19T10:45:02;25.30;95.80
59025;DHT22;44806;48.008;13.666;2022-08-19T10:47:33;25.30;95.10
59025;DHT22;44806;48.008;13.666;2022-08-19T10:50:00;25.40;96.00
59025;DHT22;44806;48.008;13.666;2022-08-19T10:52:50;25.50;95.10
59025;DHT22;44806;48.008;13.666;2022-08-19T10:55:19;25.70;94.20
59025;DHT22;44806;48.008;13.666;2022-08-19T10:58:09;25.90;94.50
59025;DHT22;44806;48.008;13.666;2022-08-19T11:00:37;26.00;93.10
59025;DHT22;44806;48.008;13.666;2022-08-19T11:03:05;26.10;93.40
59025;DHT22;44806;48.008;13.666;2022-08-19T11:05:33;26.20;93.40
59025;DHT22;44806;48.008;13.666;2022-08-19T11:08:00;25.80;92.10
59025;DHT22;44806;48.008;13.666;2022-08-19T11:10:31;25.70;92.90
59025;DHT22;44806;48.008;13.666;2022-08-19T11:12:58;25.80;93.20
59025;DHT22;44806;48.008;13.666;2022-08-19T11:15:26;26.00;94.20
59025;DHT22;44806;48.008;13.666;2022-08-19T11:17:54;26.20;94.10
59025;DHT22;44806;48.008;13.666;2022-08-19T11:20:23;26.20;92.20
59025;DHT22;44806;48.008;13.666;2022-08-19T11:22:51;26.30;92.20
59025;DHT22;44806;48.008;13.666;2022-08-19T11:25:18;26.40;91.10
59025;DHT22;44806;48.008;13.666;2022-08-19T11:27:46;26.60;91.50
59025;DHT22;44806;48.008;13.666;2022-08-19T11:30:16;26.80;91.00
59025;DHT22;44806;48.008;13.666;2022-08-19T11:32:46;27.00;90.60
59025;DHT22;44806;48.008;13.666;2022-08-19T11:35:14;27.10;90.40
59025;DHT22;44806;48.008;13.666;2022-08-19T11:37:43;27.10;89.70
59025;DHT22;44806;48.008;13.666;2022-08-19T11:40:11;27.10;87.40
59025;DHT22;44806;48.008;13.666;2022-08-19T11:42:38;27.10;86.80
59025;DHT22;44806;48.008;13.666;2022-08-19T11:45:27;26.90;85.40
59025;DHT22;44806;48.008;13.666;2022-08-19T11:47:55;27.00;88.70
59025;DHT22;44806;48.008;13.666;2022-08-19T11:50:22;27.00;89.10
59025;DHT22;44806;48.008;13.666;2022-08-19T11:52:54;26.80;90.70
59025;DHT22;44806;48.008;13.666;2022-08-19T11:55:21;26.60;88.00
59025;DHT22;44806;48.008;13.666;2022-08-19T11:57:49;26.80;89.80
59025;DHT22;44806;48.008;13.666;2022-08-19T12:00:16;26.80;89.20
59025;DHT22;44806;48.008;13.666;2022-08-19T12:02:44;26.80;88.50
59025;DHT22;44806;48.008;13.666;2022-08-19T12:05:11;26.80;89.60
59025;DHT22;44806;48.008;13.666;2022-08-19T12:07:39;26.70;89.80
59025;DHT22;44806;48.008;13.666;2022-08-19T12:10:11;26.80;89.70
59025;DHT22;44806;48.008;13.666;2022-08-19T12:12:38;26.70;87.00
59025;DHT22;44806;48.008;13.666;2022-08-19T12:15:09;26.60;87.80
59025;DHT22;44806;48.008;13.666;2022-08-19T12:17:42;26.40;86.50
59025;DHT22;44806;48.008;13.666;2022-08-19T12:20:11;26.50;89.30
59025;DHT22;44806;48.008;13.666;2022-08-19T12:22:39;26.50;89.00
59025;DHT22;44806;48.008;13.666;2022-08-19T12:25:07;26.50;90.20
59025;DHT22;44806;48.008;13.666;2022-08-19T12:27:36;26.70;89.90
59025;DHT22;44806;48.008;13.666;2022-08-19T12:30:04;26.80;90.20
59025;DHT22;44806;48.008;13.666;2022-08-19T12:32:33;26.80;86.10
59025;DHT22;44806;48.008;13.666;2022-08-19T12:35:00;26.60;85.30
59025;DHT22;44806;48.008;13.666;2022-08-19T12:37:28;26.30;86.80
59025;DHT22;44806;48.008;13.666;2022-08-19T12:39:55;26.40;90.60
59025;DHT22;44806;48.008;13.666;2022-08-19T12:42:23;26.50;86.90
59025;DHT22;44806;48.008;13.666;2022-08-19T12:44:51;26.40;88.50
59025;DHT22;44806;48.008;13.666;2022-08-19T12:47:18;26.50;90.00
59025;DHT22;44806;48.008;13.666;2022-08-19T12:49:47;26.50;88.00
59025;DHT22;44806;48.008;13.666;2022-08-19T12:52:15;26.90;88.50
59025;DHT22;44806;48.008;13.666;2022-08-19T12:54:42;27.00;86.40
59025;DHT22;44806;48.008;13.666;2022-08-19T12:57:10;27.20;89.40
59025;DHT22;44806;48.008;13.666;2022-08-19T12:59:38;27.50;84.90
59025;DHT22;44806;48.008;13.666;2022-08-19T13:02:07;27.80;86.50
59025;DHT22;44806;48.008;13.666;2022-08-19T13:04:35;28.00;83.70
59025;DHT22;44806;48.008;13.666;2022-08-19T13:07:06;28.10;83.90
59025;DHT22;44806;48.008;13.666;2022-08-19T13:09:34;28.10;84.30
59025;DHT22;44806;48.008;13.666;2022-08-19T13:12:02;27.80;81.30
59025;DHT22;44806;48.008;13.666;2022-08-19T13:14:33;27.80;81.80
59025;DHT22;44806;48.008;13.666;2022-08-19T13:17:01;27.80;80.40
59025;DHT22;44806;48.008;13.666;2022-08-19T13:19:30;27.80;79.00
59025;DHT22;44806;48.008;13.666;2022-08-19T13:21:58;27.80;77.00
59025;DHT22;44806;48.008;13.666;2022-08-19T13:24:26;27.90;78.80
59025;DHT22;44806;48.008;13.666;2022-08-19T13:26:53;28.10;78.10
59025;DHT22;44806;48.008;13.666;2022-08-19T13:29:22;28.10;78.50
59025;DHT22;44806;48.008;13.666;2022-08-19T13:32:07;28.20;79.50
59025;DHT22;44806;48.008;13.666;2022-08-19T13:34:53;28.20;77.50
59025;DHT22;44806;48.008;13.666;2022-08-19T13:37:20;28.20;80.30
59025;DHT22;44806;48.008;13.666;2022-08-19T13:40:08;28.00;78.30
59025;DHT22;44806;48.008;13.666;2022-08-19T13:42:37;27.90;77.90
59025;DHT22;44806;48.008;13.666;2022-08-19T13:45:05;27.90;77.70
59025;DHT22;44806;48.008;13.666;2022-08-19T13:47:33;27.60;76.60
59025;DHT22;44806;48.008;13.666;2022-08-19T13:50:02;27.60;81.60
59025;DHT22;44806;48.008;13.666;2022-08-19T13:52:32;27.50;79.80
59025;DHT22;44806;48.008;13.666;2022-08-19T13:54:59;27.60;79.10
59025;DHT22;44806;48.008;13.666;2022-08-19T13:57:26;27.50;81.40
59025;DHT22;44806;48.008;13.666;2022-08-19T13:59:54;27.60;80.40
59025;DHT22;44806;48.008;13.666;2022-08-19T14:02:21;27.50;80.00
59025;DHT22;44806;48.008;13.666;2022-08-19T14:04:48;27.40;78.00
59025;DHT22;44806;48.008;13.666;2022-08-19T14:07:17;27.20;79.00
59025;DHT22;44806;48.008;13.666;2022-08-19T14:09:44;27.30;81.50
59025;DHT22;44806;48.008;13.666;2022-08-19T14:12:11;27.20;80.60
59025;DHT22;44806;48.008;13.666;2022-08-19T14:14:39;27.30;82.70
59025;DHT22;44806;48.008;13.666;2022-08-19T14:17:06;27.10;82.70
59025;DHT22;44806;48.008;13.666;2022-08-19T14:19:35;26.90;83.60
59025;DHT22;44806;48.008;13.666;2022-08-19T14:22:02;27.00;87.80
59025;DHT22;44806;48.008;13.666;2022-08-19T14:24:31;26.50;91.60
59025;DHT22;44806;48.008;13.666;2022-08-19T14:26:59;26.10;94.30
59025;DHT22;44806;48.008;13.666;2022-08-19T14:29:26;25.90;96.20
59025;DHT22;44806;48.008;13.666;2022-08-19T14:31:57;25.40;96.60
59025;DHT22;44806;48.008;13.666;2022-08-19T14:34:26;25.30;97.50
59025;DHT22;44806;48.008;13.666;2022-08-19T14:36:53;25.40;97.30
59025;DHT22;44806;48.008;13.666;2022-08-19T14:39:20;25.40;98.10
59025;DHT22;44806;48.008;13.666;2022-08-19T14:41:49;25.50;98.40
59025;DHT22;44806;48.008;13.666;2022-08-19T14:44:16;25.40;98.70
59025;DHT22;44806;48.008;13.666;2022-08-19T14:46:43;25.40;99.10
59025;DHT22;44806;48.008;13.666;2022-08-19T14:49:11;25.30;99.50
59025;DHT22;44806;48.008;13.666;2022-08-19T14:51:38;25.30;99.80
59025;DHT22;44806;48.008;13.666;2022-08-19T14:54:05;25.30;99.80
59025;DHT22;44806;48.008;13.666;2022-08-19T14:56:35;25.40;99.80
59025;DHT22;44806;48.008;13.666;2022-08-19T14:59:03;25.30;99.60
59025;DHT22;44806;48.008;13.666;2022-08-19T15:01:32;25.30;99.70
59025;DHT22;44806;48.008;13.666;2022-08-19T15:04:00;25.30;99.90
59025;DHT22;44806;48.008;13.666;2022-08-19T15:06:27;25.20;99.90
59025;DHT22;44806;48.008;13.666;2022-08-19T15:08:55;25.20;99.90
59025;DHT22;44806;48.008;13.666;2022-08-19T15:11:24;25.40;99.90
59025;DHT22;44806;48.008;13.666;2022-08-19T15:13:54;25.60;99.30
59025;DHT22;44806;48.008;13.666;2022-08-19T15:16:23;25.90;98.10
59025;DHT22;44806;48.008;13.666;2022-08-19T15:18:53;25.70;96.20
59025;DHT22;44806;48.008;13.666;2022-08-19T15:21:22;25.60;97.50
59025;DHT22;44806;48.008;13.666;2022-08-19T15:23:50;25.90;96.30
59025;DHT22;44806;48.008;13.666;2022-08-19T15:26:19;25.90;95.90